sensor_id;sensor_type;location;lat;lon;timestamp;P1;durP1;ratioP1;P2;durP2;ratioP2
63087;SDS011;49173;43.164;27.786;2023-07-13T00:01:29;8.70;;;4.30;;
63087;SDS011;49173;43.164;27.786;2023-07-13T00:03:56;9.48;;;4.50;;
63087;SDS011;49173;43.164;27.786;2023-07-13T00:06:23;5.60;;;4.00;;
63087;SDS011;49173;43.164;27.786;2023-07-13T00:08:49;8.05;;;4.40;;
63087;SDS011;49173;43.164;27.786;2023-07-13T00:11:15;10.38;;;4.45;;
63087;SDS011;49173;43.164;27.786;2023-07-13T00:13:42;5.85;;;4.13;;
63087;SDS011;49173;43.164;27.786;2023-07-13T00:16:09;5.53;;;4.55;;
63087;SDS011;49173;43.164;27.786;2023-07-13T00:18:36;5.53;;;4.10;;
63087;SDS011;49173;43.164;27.786;2023-07-13T00:21:03;12.23;;;4.72;;
63087;SDS011;49173;43.164;27.786;2023-07-13T00:23:36;7.10;;;4.75;;
63087;SDS011;49173;43.164;27.786;2023-07-13T00:26:04;6.93;;;4.75;;
63087;SDS011;49173;43.164;27.786;2023-07-13T00:28:32;7.10;;;4.35;;
63087;SDS011;49173;43.164;27.786;2023-07-13T00:30:59;7.50;;;4.80;;
63087;SDS011;49173;43.164;27.786;2023-07-13T00:33:26;8.02;;;4.78;;
63087;SDS011;49173;43.164;27.786;2023-07-13T00:35:53;7.95;;;4.85;;
63087;SDS011;49173;43.164;27.786;2023-07-13T00:38:20;7.05;;;4.90;;
63087;SDS011;49173;43.164;27.786;2023-07-13T00:40:46;6.57;;;4.55;;
63087;SDS011;49173;43.164;27.786;2023-07-13T00:43:17;5.60;;;4.50;;
63087;SDS011;49173;43.164;27.786;2023-07-13T00:48:14;6.43;;;4.80;;
63087;SDS011;49173;43.164;27.786;2023-07-13T00:50:46;5.82;;;4.50;;
63087;SDS011;49173;43.164;27.786;2023-07-13T00:53:20;8.48;;;4.72;;
63087;SDS011;49173;43.164;27.786;2023-07-13T00:55:47;7.50;;;5.22;;
63087;SDS011;49173;43.164;27.786;2023-07-13T00:58:15;7.88;;;5.28;;
63087;SDS011;49173;43.164;27.786;2023-07-13T01:00:41;7.05;;;5.10;;
63087;SDS011;49173;43.164;27.786;2023-07-13T01:03:07;8.65;;;5.10;;
63087;SDS011;49173;43.164;27.786;2023-07-13T01:05:34;9.65;;;4.95;;
63087;SDS011;49173;43.164;27.786;2023-07-13T01:08:00;7.95;;;4.97;;
63087;SDS011;49173;43.164;27.786;2023-07-13T01:10:28;7.03;;;5.15;;
63087;SDS011;49173;43.164;27.786;2023-07-13T01:12:56;7.78;;;5.30;;
63087;SDS011;49173;43.164;27.786;2023-07-13T01:15:35;7.72;;;5.47;;
63087;SDS011;49173;43.164;27.786;2023-07-13T01:18:16;7.38;;;5.30;;
63087;SDS011;49173;43.164;27.786;2023-07-13T01:20:53;8.13;;;5.45;;
63087;SDS011;49173;43.164;27.786;2023-07-13T01:23:20;12.52;;;5.03;;
63087;SDS011;49173;43.164;27.786;2023-07-13T01:25:46;7.63;;;5.07;;
63087;SDS011;49173;43.164;27.786;2023-07-13T01:28:12;7.45;;;5.43;;
63087;SDS011;49173;43.164;27.786;2023-07-13T01:30:39;7.95;;;5.18;;
63087;SDS011;49173;43.164;27.786;2023-07-13T01:33:08;7.10;;;5.03;;
63087;SDS011;49173;43.164;27.786;2023-07-13T01:35:35;7.70;;;4.90;;
63087;SDS011;49173;43.164;27.786;2023-07-13T01:38:01;7.78;;;4.88;;
63087;SDS011;49173;43.164;27.786;2023-07-13T01:40:28;7.15;;;5.03;;
63087;SDS011;49173;43.164;27.786;2023-07-13T01:42:55;6.22;;;5.20;;
63087;SDS011;49173;43.164;27.786;2023-07-13T01:45:20;6.82;;;5.03;;
63087;SDS011;49173;43.164;27.786;2023-07-13T01:47:46;9.05;;;5.65;;
63087;SDS011;49173;43.164;27.786;2023-07-13T01:50:12;6.70;;;4.95;;
63087;SDS011;49173;43.164;27.786;2023-07-13T01:52:38;8.02;;;5.00;;
63087;SDS011;49173;43.164;27.786;2023-07-13T01:55:04;7.22;;;5.18;;
63087;SDS011;49173;43.164;27.786;2023-07-13T01:57:30;8.32;;;5.65;;
63087;SDS011;49173;43.164;27.786;2023-07-13T01:59:56;7.43;;;4.97;;
63087;SDS011;49173;43.164;27.786;2023-07-13T02:02:22;8.13;;;5.85;;
63087;SDS011;49173;43.164;27.786;2023-07-13T02:04:48;8.05;;;5.43;;
63087;SDS011;49173;43.164;27.786;2023-07-13T02:07:13;6.88;;;5.63;;
63087;SDS011;49173;43.164;27.786;2023-07-13T02:09:40;6.90;;;5.05;;
63087;SDS011;49173;43.164;27.786;2023-07-13T02:12:07;7.18;;;5.22;;
63087;SDS011;49173;43.164;27.786;2023-07-13T02:14:33;11.13;;;5.35;;
63087;SDS011;49173;43.164;27.786;2023-07-13T02:16:59;8.30;;;5.50;;
63087;SDS011;49173;43.164;27.786;2023-07-13T02:19:25;7.88;;;5.43;;
63087;SDS011;49173;43.164;27.786;2023-07-13T02:21:51;8.38;;;5.78;;
63087;SDS011;49173;43.164;27.786;2023-07-13T02:24:16;7.40;;;4.97;;
63087;SDS011;49173;43.164;27.786;2023-07-13T02:26:47;6.97;;;5.57;;
63087;SDS011;49173;43.164;27.786;2023-07-13T02:29:13;9.07;;;5.20;;
63087;SDS011;49173;43.164;27.786;2023-07-13T02:31:40;7.15;;;5.40;;
63087;SDS011;49173;43.164;27.786;2023-07-13T02:34:06;7.32;;;5.30;;
63087;SDS011;49173;43.164;27.786;2023-07-13T02:36:31;6.53;;;5.35;;
63087;SDS011;49173;43.164;27.786;2023-07-13T02:39:00;7.05;;;5.60;;
63087;SDS011;49173;43.164;27.786;2023-07-13T02:41:29;10.35;;;5.60;;
63087;SDS011;49173;43.164;27.786;2023-07-13T02:43:54;6.32;;;5.05;;
63087;SDS011;49173;43.164;27.786;2023-07-13T02:46:28;8.02;;;5.72;;
63087;SDS011;49173;43.164;27.786;2023-07-13T02:48:58;10.60;;;5.55;;
63087;SDS011;49173;43.164;27.786;2023-07-13T02:51:24;11.23;;;5.97;;
63087;SDS011;49173;43.164;27.786;2023-07-13T02:53:50;6.40;;;5.35;;
63087;SDS011;49173;43.164;27.786;2023-07-13T02:56:16;8.98;;;5.38;;
63087;SDS011;49173;43.164;27.786;2023-07-13T02:58:42;6.95;;;5.22;;
63087;SDS011;49173;43.164;27.786;2023-07-13T03:01:08;6.45;;;5.50;;
63087;SDS011;49173;43.164;27.786;2023-07-13T03:03:36;7.82;;;5.50;;
63087;SDS011;49173;43.164;27.786;2023-07-13T03:06:03;7.57;;;5.32;;
63087;SDS011;49173;43.164;27.786;2023-07-13T03:08:31;6.47;;;5.22;;
63087;SDS011;49173;43.164;27.786;2023-07-13T03:11:04;6.07;;;5.40;;
63087;SDS011;49173;43.164;27.786;2023-07-13T03:13:32;8.35;;;5.60;;
63087;SDS011;49173;43.164;27.786;2023-07-13T03:15:58;5.95;;;5.10;;
63087;SDS011;49173;43.164;27.786;2023-07-13T03:18:25;6.65;;;5.47;;
63087;SDS011;49173;43.164;27.786;2023-07-13T03:20:51;5.85;;;5.00;;
63087;SDS011;49173;43.164;27.786;2023-07-13T03:23:18;6.90;;;5.38;;
63087;SDS011;49173;43.164;27.786;2023-07-13T03:25:44;8.73;;;5.28;;
63087;SDS011;49173;43.164;27.786;2023-07-13T03:28:11;9.85;;;5.10;;
63087;SDS011;49173;43.164;27.786;2023-07-13T03:30:37;8.32;;;5.25;;
63087;SDS011;49173;43.164;27.786;2023-07-13T03:33:03;6.53;;;5.25;;
63087;SDS011;49173;43.164;27.786;2023-07-13T03:35:29;9.35;;;5.40;;
63087;SDS011;49173;43.164;27.786;2023-07-13T03:37:54;8.45;;;5.15;;
63087;SDS011;49173;43.164;27.786;2023-07-13T03:40:20;5.85;;;5.00;;
63087;SDS011;49173;43.164;27.786;2023-07-13T03:42:46;6.47;;;5.18;;
63087;SDS011;49173;43.164;27.786;2023-07-13T03:45:12;6.57;;;5.50;;
63087;SDS011;49173;43.164;27.786;2023-07-13T03:47:38;8.15;;;4.97;;
63087;SDS011;49173;43.164;27.786;2023-07-13T03:50:04;6.63;;;5.05;;
63087;SDS011;49173;43.164;27.786;2023-07-13T03:52:30;6.85;;;4.93;;
63087;SDS011;49173;43.164;27.786;2023-07-13T03:54:56;7.75;;;5.22;;
63087;SDS011;49173;43.164;27.786;2023-07-13T03:57:22;9.95;;;5.43;;
63087;SDS011;49173;43.164;27.786;2023-07-13T03:59:48;7.22;;;5.63;;
63087;SDS011;49173;43.164;27.786;2023-07-13T04:02:14;7.65;;;5.53;;
63087;SDS011;49173;43.164;27.786;2023-07-13T04:04:39;7.43;;;5.43;;
63087;SDS011;49173;43.164;27.786;2023-07-13T04:07:08;8.38;;;5.78;;
63087;SDS011;49173;43.164;27.786;2023-07-13T04:09:35;9.23;;;5.70;;
63087;SDS011;49173;43.164;27.786;2023-07-13T04:12:01;10.63;;;5.90;;
63087;SDS011;49173;43.164;27.786;2023-07-13T04:14:27;7.00;;;5.50;;
63087;SDS011;49173;43.164;27.786;2023-07-13T04:16:52;10.30;;;6.13;;
63087;SDS011;49173;43.164;27.786;2023-07-13T04:19:20;7.25;;;5.90;;
63087;SDS011;49173;43.164;27.786;2023-07-13T04:21:46;8.93;;;5.80;;
63087;SDS011;49173;43.164;27.786;2023-07-13T04:24:11;9.60;;;5.95;;
63087;SDS011;49173;43.164;27.786;2023-07-13T04:26:38;8.50;;;6.32;;
63087;SDS011;49173;43.164;27.786;2023-07-13T04:29:05;8.68;;;6.05;;
63087;SDS011;49173;43.164;27.786;2023-07-13T04:31:32;6.80;;;5.80;;
63087;SDS011;49173;43.164;27.786;2023-07-13T04:33:59;9.90;;;6.35;;
63087;SDS011;49173;43.164;27.786;2023-07-13T04:36:25;9.73;;;6.18;;
63087;SDS011;49173;43.164;27.786;2023-07-13T04:41:20;7.88;;;5.40;;
63087;SDS011;49173;43.164;27.786;2023-07-13T04:43:46;10.50;;;6.05;;
63087;SDS011;49173;43.164;27.786;2023-07-13T04:46:13;8.93;;;6.13;;
63087;SDS011;49173;43.164;27.786;2023-07-13T04:48:40;8.85;;;6.05;;
63087;SDS011;49173;43.164;27.786;2023-07-13T04:51:10;10.82;;;6.65;;
63087;SDS011;49173;43.164;27.786;2023-07-13T04:53:36;8.48;;;5.95;;
63087;SDS011;49173;43.164;27.786;2023-07-13T04:56:02;9.38;;;6.72;;
63087;SDS011;49173;43.164;27.786;2023-07-13T04:58:29;8.85;;;6.53;;
63087;SDS011;49173;43.164;27.786;2023-07-13T05:01:04;10.95;;;6.10;;
63087;SDS011;49173;43.164;27.786;2023-07-13T05:03:31;8.30;;;6.55;;
63087;SDS011;49173;43.164;27.786;2023-07-13T05:05:58;7.47;;;6.20;;
63087;SDS011;49173;43.164;27.786;2023-07-13T05:08:25;10.33;;;6.77;;
63087;SDS011;49173;43.164;27.786;2023-07-13T05:10:51;9.70;;;6.53;;
63087;SDS011;49173;43.164;27.786;2023-07-13T05:13:17;7.47;;;6.20;;
63087;SDS011;49173;43.164;27.786;2023-07-13T05:15:44;10.40;;;6.43;;
63087;SDS011;49173;43.164;27.786;2023-07-13T05:18:10;8.60;;;5.38;;
63087;SDS011;49173;43.164;27.786;2023-07-13T05:20:35;7.88;;;6.18;;
63087;SDS011;49173;43.164;27.786;2023-07-13T05:23:01;10.02;;;6.28;;
63087;SDS011;49173;43.164;27.786;2023-07-13T05:25:27;7.88;;;6.35;;
63087;SDS011;49173;43.164;27.786;2023-07-13T05:27:53;8.57;;;6.97;;
63087;SDS011;49173;43.164;27.786;2023-07-13T05:30:18;9.80;;;6.00;;
63087;SDS011;49173;43.164;27.786;2023-07-13T05:32:44;8.73;;;6.15;;
63087;SDS011;49173;43.164;27.786;2023-07-13T05:35:11;11.85;;;6.60;;
63087;SDS011;49173;43.164;27.786;2023-07-13T05:37:37;9.30;;;6.68;;
63087;SDS011;49173;43.164;27.786;2023-07-13T05:40:03;7.95;;;6.20;;
63087;SDS011;49173;43.164;27.786;2023-07-13T05:42:29;7.20;;;5.82;;
63087;SDS011;49173;43.164;27.786;2023-07-13T05:44:56;13.18;;;6.40;;
63087;SDS011;49173;43.164;27.786;2023-07-13T05:47:22;6.93;;;6.22;;
63087;SDS011;49173;43.164;27.786;2023-07-13T05:49:48;13.18;;;7.03;;
63087;SDS011;49173;43.164;27.786;2023-07-13T05:52:14;7.43;;;6.63;;
63087;SDS011;49173;43.164;27.786;2023-07-13T05:54:39;10.73;;;6.20;;
63087;SDS011;49173;43.164;27.786;2023-07-13T05:57:05;10.20;;;7.10;;
63087;SDS011;49173;43.164;27.786;2023-07-13T05:59:31;8.93;;;6.10;;
63087;SDS011;49173;43.164;27.786;2023-07-13T06:01:57;10.07;;;7.10;;
63087;SDS011;49173;43.164;27.786;2023-07-13T06:04:22;9.70;;;7.10;;
63087;SDS011;49173;43.164;27.786;2023-07-13T06:06:48;10.15;;;7.03;;
63087;SDS011;49173;43.164;27.786;2023-07-13T06:09:14;9.90;;;7.28;;
63087;SDS011;49173;43.164;27.786;2023-07-13T06:11:39;13.07;;;6.70;;
63087;SDS011;49173;43.164;27.786;2023-07-13T06:14:05;14.20;;;7.05;;
63087;SDS011;49173;43.164;27.786;2023-07-13T06:16:31;10.80;;;6.90;;
63087;SDS011;49173;43.164;27.786;2023-07-13T06:18:57;9.88;;;7.03;;
63087;SDS011;49173;43.164;27.786;2023-07-13T06:21:23;8.93;;;6.47;;
63087;SDS011;49173;43.164;27.786;2023-07-13T06:23:49;15.45;;;7.35;;
63087;SDS011;49173;43.164;27.786;2023-07-13T06:26:17;11.55;;;6.70;;
63087;SDS011;49173;43.164;27.786;2023-07-13T06:28:44;13.73;;;7.03;;
63087;SDS011;49173;43.164;27.786;2023-07-13T06:31:10;11.52;;;6.30;;
63087;SDS011;49173;43.164;27.786;2023-07-13T06:33:37;8.73;;;6.38;;
63087;SDS011;49173;43.164;27.786;2023-07-13T06:36:04;8.50;;;6.60;;
63087;SDS011;49173;43.164;27.786;2023-07-13T06:38:31;8.82;;;6.97;;
63087;SDS011;49173;43.164;27.786;2023-07-13T06:40:57;12.48;;;6.75;;
63087;SDS011;49173;43.164;27.786;2023-07-13T06:43:23;10.00;;;6.88;;
63087;SDS011;49173;43.164;27.786;2023-07-13T06:45:54;10.90;;;7.25;;
63087;SDS011;49173;43.164;27.786;2023-07-13T06:48:21;11.18;;;6.80;;
63087;SDS011;49173;43.164;27.786;2023-07-13T06:50:52;12.90;;;7.35;;
63087;SDS011;49173;43.164;27.786;2023-07-13T06:53:22;9.07;;;5.95;;
63087;SDS011;49173;43.164;27.786;2023-07-13T06:55:54;10.50;;;6.80;;
63087;SDS011;49173;43.164;27.786;2023-07-13T06:58:24;8.50;;;6.25;;
63087;SDS011;49173;43.164;27.786;2023-07-13T07:00:56;10.32;;;6.70;;
63087;SDS011;49173;43.164;27.786;2023-07-13T07:03:28;8.52;;;7.18;;
63087;SDS011;49173;43.164;27.786;2023-07-13T07:06:15;12.73;;;7.22;;
63087;SDS011;49173;43.164;27.786;2023-07-13T07:08:58;8.00;;;7.10;;
63087;SDS011;49173;43.164;27.786;2023-07-13T07:11:30;9.65;;;6.68;;
63087;SDS011;49173;43.164;27.786;2023-07-13T07:14:05;10.10;;;6.72;;
63087;SDS011;49173;43.164;27.786;2023-07-13T07:16:34;10.40;;;6.90;;
63087;SDS011;49173;43.164;27.786;2023-07-13T07:19:07;10.00;;;7.25;;
63087;SDS011;49173;43.164;27.786;2023-07-13T07:21:36;11.20;;;6.90;;
63087;SDS011;49173;43.164;27.786;2023-07-13T07:24:05;12.88;;;7.35;;
63087;SDS011;49173;43.164;27.786;2023-07-13T07:26:40;9.43;;;7.07;;
63087;SDS011;49173;43.164;27.786;2023-07-13T07:29:09;9.27;;;7.10;;
63087;SDS011;49173;43.164;27.786;2023-07-13T07:31:41;10.43;;;7.68;;
63087;SDS011;49173;43.164;27.786;2023-07-13T07:34:13;11.95;;;7.45;;
63087;SDS011;49173;43.164;27.786;2023-07-13T07:36:45;9.65;;;7.28;;
63087;SDS011;49173;43.164;27.786;2023-07-13T07:39:21;9.07;;;7.10;;
63087;SDS011;49173;43.164;27.786;2023-07-13T07:41:53;12.55;;;7.75;;
63087;SDS011;49173;43.164;27.786;2023-07-13T07:44:25;11.43;;;7.78;;
63087;SDS011;49173;43.164;27.786;2023-07-13T07:47:00;12.20;;;7.47;;
63087;SDS011;49173;43.164;27.786;2023-07-13T07:49:41;10.45;;;7.68;;
63087;SDS011;49173;43.164;27.786;2023-07-13T07:52:16;11.95;;;7.80;;
63087;SDS011;49173;43.164;27.786;2023-07-13T07:54:49;11.00;;;7.93;;
63087;SDS011;49173;43.164;27.786;2023-07-13T07:57:18;14.15;;;7.60;;
63087;SDS011;49173;43.164;27.786;2023-07-13T07:59:47;11.10;;;7.57;;
63087;SDS011;49173;43.164;27.786;2023-07-13T08:02:19;10.68;;;7.95;;
63087;SDS011;49173;43.164;27.786;2023-07-13T08:04:48;15.32;;;8.55;;
63087;SDS011;49173;43.164;27.786;2023-07-13T08:07:18;12.38;;;7.88;;
63087;SDS011;49173;43.164;27.786;2023-07-13T08:09:55;10.90;;;8.18;;
63087;SDS011;49173;43.164;27.786;2023-07-13T08:12:34;14.13;;;8.30;;
63087;SDS011;49173;43.164;27.786;2023-07-13T08:15:06;10.63;;;7.90;;
63087;SDS011;49173;43.164;27.786;2023-07-13T08:17:41;11.57;;;8.55;;
63087;SDS011;49173;43.164;27.786;2023-07-13T08:20:10;14.27;;;8.23;;
63087;SDS011;49173;43.164;27.786;2023-07-13T08:22:40;10.93;;;8.10;;
63087;SDS011;49173;43.164;27.786;2023-07-13T08:25:11;13.80;;;7.63;;
63087;SDS011;49173;43.164;27.786;2023-07-13T08:27:44;15.20;;;8.15;;
63087;SDS011;49173;43.164;27.786;2023-07-13T08:30:19;14.02;;;8.50;;
63087;SDS011;49173;43.164;27.786;2023-07-13T08:32:54;13.20;;;8.27;;
63087;SDS011;49173;43.164;27.786;2023-07-13T08:35:27;15.00;;;8.40;;
63087;SDS011;49173;43.164;27.786;2023-07-13T08:37:56;9.07;;;7.82;;
63087;SDS011;49173;43.164;27.786;2023-07-13T08:40:27;13.48;;;8.18;;
63087;SDS011;49173;43.164;27.786;2023-07-13T08:42:59;13.82;;;7.45;;
63087;SDS011;49173;43.164;27.786;2023-07-13T08:45:39;13.13;;;7.50;;
63087;SDS011;49173;43.164;27.786;2023-07-13T08:48:39;12.30;;;8.05;;
63087;SDS011;49173;43.164;27.786;2023-07-13T08:54:41;9.57;;;7.05;;
63087;SDS011;49173;43.164;27.786;2023-07-13T08:59:41;10.27;;;7.32;;
63087;SDS011;49173;43.164;27.786;2023-07-13T09:05:04;16.42;;;7.05;;
63087;SDS011;49173;43.164;27.786;2023-07-13T09:10:42;10.65;;;6.78;;
63087;SDS011;49173;43.164;27.786;2023-07-13T09:13:24;10.43;;;6.72;;
63087;SDS011;49173;43.164;27.786;2023-07-13T09:16:11;13.75;;;6.60;;
63087;SDS011;49173;43.164;27.786;2023-07-13T09:18:47;13.73;;;6.97;;
63087;SDS011;49173;43.164;27.786;2023-07-13T09:21:27;11.00;;;7.50;;
63087;SDS011;49173;43.164;27.786;2023-07-13T09:24:41;12.35;;;6.82;;
63087;SDS011;49173;43.164;27.786;2023-07-13T09:27:29;12.48;;;6.47;;
63087;SDS011;49173;43.164;27.786;2023-07-13T09:32:43;11.63;;;6.93;;
63087;SDS011;49173;43.164;27.786;2023-07-13T09:35:22;15.75;;;6.30;;
63087;SDS011;49173;43.164;27.786;2023-07-13T09:38:16;13.40;;;7.80;;
63087;SDS011;49173;43.164;27.786;2023-07-13T09:41:05;10.27;;;6.60;;
63087;SDS011;49173;43.164;27.786;2023-07-13T09:47:01;9.02;;;6.43;;
63087;SDS011;49173;43.164;27.786;2023-07-13T09:49:37;9.65;;;6.60;;
63087;SDS011;49173;43.164;27.786;2023-07-13T09:52:14;9.27;;;6.85;;
63087;SDS011;49173;43.164;27.786;2023-07-13T09:54:53;10.00;;;6.75;;
63087;SDS011;49173;43.164;27.786;2023-07-13T09:57:46;10.02;;;6.40;;
63087;SDS011;49173;43.164;27.786;2023-07-13T10:00:21;9.20;;;6.20;;
63087;SDS011;49173;43.164;27.786;2023-07-13T10:03:02;13.35;;;6.35;;
63087;SDS011;49173;43.164;27.786;2023-07-13T10:05:45;14.10;;;6.68;;
63087;SDS011;49173;43.164;27.786;2023-07-13T10:11:23;12.65;;;6.65;;
63087;SDS011;49173;43.164;27.786;2023-07-13T10:14:00;10.45;;;5.93;;
63087;SDS011;49173;43.164;27.786;2023-07-13T10:16:44;15.85;;;7.13;;
63087;SDS011;49173;43.164;27.786;2023-07-13T10:19:32;9.88;;;6.68;;
63087;SDS011;49173;43.164;27.786;2023-07-13T10:22:15;9.70;;;6.75;;
63087;SDS011;49173;43.164;27.786;2023-07-13T10:24:46;10.50;;;6.30;;
63087;SDS011;49173;43.164;27.786;2023-07-13T10:27:32;11.98;;;6.60;;
63087;SDS011;49173;43.164;27.786;2023-07-13T10:32:51;17.73;;;7.47;;
63087;SDS011;49173;43.164;27.786;2023-07-13T10:35:26;11.45;;;7.18;;
63087;SDS011;49173;43.164;27.786;2023-07-13T10:38:20;13.02;;;6.90;;
63087;SDS011;49173;43.164;27.786;2023-07-13T10:43:39;12.00;;;6.38;;
63087;SDS011;49173;43.164;27.786;2023-07-13T10:46:25;11.93;;;6.32;;
63087;SDS011;49173;43.164;27.786;2023-07-13T10:49:05;15.30;;;7.03;;
63087;SDS011;49173;43.164;27.786;2023-07-13T10:51:33;11.40;;;6.65;;
63087;SDS011;49173;43.164;27.786;2023-07-13T10:54:11;11.48;;;6.47;;
63087;SDS011;49173;43.164;27.786;2023-07-13T10:56:53;11.00;;;6.40;;
63087;SDS011;49173;43.164;27.786;2023-07-13T11:02:43;9.35;;;7.00;;
63087;SDS011;49173;43.164;27.786;2023-07-13T11:05:36;9.15;;;6.57;;
63087;SDS011;49173;43.164;27.786;2023-07-13T11:08:16;14.35;;;7.30;;
63087;SDS011;49173;43.164;27.786;2023-07-13T11:11:01;10.88;;;6.63;;
63087;SDS011;49173;43.164;27.786;2023-07-13T11:14:00;14.43;;;6.70;;
63087;SDS011;49173;43.164;27.786;2023-07-13T11:16:45;10.60;;;6.93;;
63087;SDS011;49173;43.164;27.786;2023-07-13T11:24:56;12.70;;;6.93;;
63087;SDS011;49173;43.164;27.786;2023-07-13T11:27:40;13.45;;;6.53;;
63087;SDS011;49173;43.164;27.786;2023-07-13T11:36:10;11.73;;;6.30;;
63087;SDS011;49173;43.164;27.786;2023-07-13T11:38:51;15.52;;;6.28;;
63087;SDS011;49173;43.164;27.786;2023-07-13T11:41:31;10.35;;;6.85;;
63087;SDS011;49173;43.164;27.786;2023-07-13T11:44:21;16.70;;;6.95;;
63087;SDS011;49173;43.164;27.786;2023-07-13T11:47:08;10.00;;;6.72;;
63087;SDS011;49173;43.164;27.786;2023-07-13T11:49:49;9.55;;;6.28;;
63087;SDS011;49173;43.164;27.786;2023-07-13T11:52:31;9.93;;;6.57;;
63087;SDS011;49173;43.164;27.786;2023-07-13T11:57:58;12.43;;;6.65;;
63087;SDS011;49173;43.164;27.786;2023-07-13T12:00:38;12.82;;;6.80;;
63087;SDS011;49173;43.164;27.786;2023-07-13T12:03:17;10.10;;;7.00;;
63087;SDS011;49173;43.164;27.786;2023-07-13T12:05:57;12.43;;;7.18;;
63087;SDS011;49173;43.164;27.786;2023-07-13T12:08:26;14.77;;;7.18;;
63087;SDS011;49173;43.164;27.786;2023-07-13T12:11:06;13.65;;;7.15;;
63087;SDS011;49173;43.164;27.786;2023-07-13T12:13:47;12.77;;;6.63;;
63087;SDS011;49173;43.164;27.786;2023-07-13T12:16:29;17.83;;;7.90;;
63087;SDS011;49173;43.164;27.786;2023-07-13T12:19:02;14.32;;;7.50;;
63087;SDS011;49173;43.164;27.786;2023-07-13T12:21:55;10.98;;;6.90;;
63087;SDS011;49173;43.164;27.786;2023-07-13T12:24:26;12.15;;;6.90;;
63087;SDS011;49173;43.164;27.786;2023-07-13T12:27:02;11.25;;;6.75;;
63087;SDS011;49173;43.164;27.786;2023-07-13T12:29:48;9.50;;;7.40;;
63087;SDS011;49173;43.164;27.786;2023-07-13T12:32:24;11.90;;;7.15;;
63087;SDS011;49173;43.164;27.786;2023-07-13T12:34:54;9.65;;;6.95;;
63087;SDS011;49173;43.164;27.786;2023-07-13T12:37:42;9.27;;;6.20;;
63087;SDS011;49173;43.164;27.786;2023-07-13T12:40:16;8.85;;;6.47;;
63087;SDS011;49173;43.164;27.786;2023-07-13T12:42:56;12.48;;;6.30;;
63087;SDS011;49173;43.164;27.786;2023-07-13T12:45:27;9.93;;;6.57;;
63087;SDS011;49173;43.164;27.786;2023-07-13T12:47:57;8.88;;;5.75;;
63087;SDS011;49173;43.164;27.786;2023-07-13T12:50:48;10.38;;;5.88;;
63087;SDS011;49173;43.164;27.786;2023-07-13T12:53:19;16.20;;;6.70;;
63087;SDS011;49173;43.164;27.786;2023-07-13T12:56:03;9.70;;;5.82;;
63087;SDS011;49173;43.164;27.786;2023-07-13T12:58:40;10.02;;;5.90;;
63087;SDS011;49173;43.164;27.786;2023-07-13T13:01:17;10.57;;;5.88;;
63087;SDS011;49173;43.164;27.786;2023-07-13T13:03:54;12.80;;;5.95;;
63087;SDS011;49173;43.164;27.786;2023-07-13T13:06:40;13.07;;;5.97;;
63087;SDS011;49173;43.164;27.786;2023-07-13T13:09:12;9.48;;;5.70;;
63087;SDS011;49173;43.164;27.786;2023-07-13T13:11:47;7.47;;;5.63;;
63087;SDS011;49173;43.164;27.786;2023-07-13T13:14:22;9.82;;;5.75;;
63087;SDS011;49173;43.164;27.786;2023-07-13T13:16:51;12.38;;;5.80;;
63087;SDS011;49173;43.164;27.786;2023-07-13T13:19:24;12.68;;;5.53;;
63087;SDS011;49173;43.164;27.786;2023-07-13T13:21:57;12.35;;;5.78;;
63087;SDS011;49173;43.164;27.786;2023-07-13T13:24:28;13.20;;;5.90;;
63087;SDS011;49173;43.164;27.786;2023-07-13T13:27:00;9.05;;;5.82;;
63087;SDS011;49173;43.164;27.786;2023-07-13T13:29:40;7.80;;;5.45;;
63087;SDS011;49173;43.164;27.786;2023-07-13T13:32:09;10.43;;;5.63;;
63087;SDS011;49173;43.164;27.786;2023-07-13T13:34:40;9.80;;;6.05;;
63087;SDS011;49173;43.164;27.786;2023-07-13T13:37:16;11.38;;;6.20;;
63087;SDS011;49173;43.164;27.786;2023-07-13T13:39:49;8.07;;;5.70;;
63087;SDS011;49173;43.164;27.786;2023-07-13T13:42:19;12.05;;;5.55;;
63087;SDS011;49173;43.164;27.786;2023-07-13T13:44:50;8.93;;;5.65;;
63087;SDS011;49173;43.164;27.786;2023-07-13T13:47:22;13.27;;;5.88;;
63087;SDS011;49173;43.164;27.786;2023-07-13T13:49:57;12.67;;;5.63;;
63087;SDS011;49173;43.164;27.786;2023-07-13T13:52:47;10.50;;;5.50;;
63087;SDS011;49173;43.164;27.786;2023-07-13T13:55:18;11.93;;;5.13;;
63087;SDS011;49173;43.164;27.786;2023-07-13T13:57:54;11.02;;;5.70;;
63087;SDS011;49173;43.164;27.786;2023-07-13T14:00:26;15.63;;;5.72;;
63087;SDS011;49173;43.164;27.786;2023-07-13T14:03:08;10.80;;;5.38;;
63087;SDS011;49173;43.164;27.786;2023-07-13T14:05:55;7.38;;;5.60;;
63087;SDS011;49173;43.164;27.786;2023-07-13T14:08:46;8.63;;;5.53;;
63087;SDS011;49173;43.164;27.786;2023-07-13T14:11:17;9.10;;;6.05;;
63087;SDS011;49173;43.164;27.786;2023-07-13T14:13:59;8.30;;;5.82;;
63087;SDS011;49173;43.164;27.786;2023-07-13T14:16:31;10.27;;;5.80;;
63087;SDS011;49173;43.164;27.786;2023-07-13T14:19:01;8.60;;;5.38;;
63087;SDS011;49173;43.164;27.786;2023-07-13T14:21:28;8.80;;;5.75;;
63087;SDS011;49173;43.164;27.786;2023-07-13T14:24:00;10.10;;;5.45;;
63087;SDS011;49173;43.164;27.786;2023-07-13T14:26:30;8.95;;;5.45;;
63087;SDS011;49173;43.164;27.786;2023-07-13T14:29:13;10.73;;;5.80;;
63087;SDS011;49173;43.164;27.786;2023-07-13T14:32:13;15.38;;;5.88;;
63087;SDS011;49173;43.164;27.786;2023-07-13T14:34:42;8.45;;;5.88;;
63087;SDS011;49173;43.164;27.786;2023-07-13T14:37:12;12.52;;;5.30;;
63087;SDS011;49173;43.164;27.786;2023-07-13T14:39:44;8.68;;;5.32;;
63087;SDS011;49173;43.164;27.786;2023-07-13T14:42:17;14.35;;;6.00;;
63087;SDS011;49173;43.164;27.786;2023-07-13T14:44:46;11.13;;;5.20;;
63087;SDS011;49173;43.164;27.786;2023-07-13T14:47:18;11.77;;;5.63;;
63087;SDS011;49173;43.164;27.786;2023-07-13T14:49:48;15.25;;;5.35;;
63087;SDS011;49173;43.164;27.786;2023-07-13T14:52:22;8.13;;;5.35;;
63087;SDS011;49173;43.164;27.786;2023-07-13T14:54:58;11.48;;;5.45;;
63087;SDS011;49173;43.164;27.786;2023-07-13T14:57:37;8.98;;;5.25;;
63087;SDS011;49173;43.164;27.786;2023-07-13T15:02:57;9.15;;;4.90;;
63087;SDS011;49173;43.164;27.786;2023-07-13T15:05:29;10.57;;;5.75;;
63087;SDS011;49173;43.164;27.786;2023-07-13T15:08:03;9.30;;;5.32;;
63087;SDS011;49173;43.164;27.786;2023-07-13T15:10:40;8.07;;;5.60;;
63087;SDS011;49173;43.164;27.786;2023-07-13T15:13:19;12.55;;;5.50;;
63087;SDS011;49173;43.164;27.786;2023-07-13T15:15:50;9.35;;;5.55;;
63087;SDS011;49173;43.164;27.786;2023-07-13T15:18:25;8.85;;;5.65;;
63087;SDS011;49173;43.164;27.786;2023-07-13T15:20:57;7.82;;;5.47;;
63087;SDS011;49173;43.164;27.786;2023-07-13T15:23:32;9.57;;;5.95;;
63087;SDS011;49173;43.164;27.786;2023-07-13T15:26:02;10.27;;;5.72;;
63087;SDS011;49173;43.164;27.786;2023-07-13T15:28:33;9.52;;;5.78;;
63087;SDS011;49173;43.164;27.786;2023-07-13T15:31:04;7.68;;;6.00;;
63087;SDS011;49173;43.164;27.786;2023-07-13T15:33:47;8.75;;;6.25;;
63087;SDS011;49173;43.164;27.786;2023-07-13T15:36:18;9.95;;;6.53;;
63087;SDS011;49173;43.164;27.786;2023-07-13T15:38:51;10.70;;;6.32;;
63087;SDS011;49173;43.164;27.786;2023-07-13T15:41:25;11.95;;;6.43;;
63087;SDS011;49173;43.164;27.786;2023-07-13T15:43:59;9.80;;;6.43;;
63087;SDS011;49173;43.164;27.786;2023-07-13T15:46:41;10.90;;;6.60;;
63087;SDS011;49173;43.164;27.786;2023-07-13T15:49:10;8.82;;;6.28;;